createdAt,value
2024-04-23T00:00:48.807Z,97237.42
2024-04-23T00:03:41.581Z,97244.52
2024-04-23T00:06:14.382Z,97247.10
2024-04-23T00:08:47.125Z,97250.05
2024-04-23T00:11:20.461Z,97253.61
2024-04-23T00:13:53.370Z,97262.94
2024-04-23T00:16:26.313Z,97271.80
2024-04-23T00:18:59.191Z,97282.08
2024-04-23T00:21:32.471Z,97285.70
2024-04-23T00:24:05.707Z,97293.85
2024-04-23T00:26:38.541Z,97307.64
2024-04-23T00:29:13.438Z,97311.27
2024-04-23T00:31:46.839Z,97310.56
2024-04-23T00:34:20.017Z,97318.52
2024-04-23T00:36:56.915Z,97318.81
2024-04-23T00:39:30.213Z,97328.98
2024-04-23T00:42:02.931Z,97335.79
2024-04-23T00:44:35.429Z,97335.14
2024-04-23T00:47:09.295Z,97339.70
2024-04-23T00:49:42.816Z,97336.88
2024-04-23T00:52:16.948Z,97340.08
2024-04-23T00:54:50.367Z,97344.04
2024-04-23T00:57:23.888Z,97344.30
2024-04-23T00:59:56.932Z,97345.86
2024-04-23T01:02:30.107Z,97343.23
2024-04-23T01:05:03.530Z,97342.31
2024-04-23T01:07:36.866Z,97341.98
2024-04-23T01:10:10.794Z,97341.29
2024-04-23T01:12:44.237Z,97339.73
2024-04-23T01:15:17.499Z,97336.41
2024-04-23T01:17:50.751Z,97335.85
2024-04-23T01:20:24.321Z,97336.86
2024-04-23T01:23:04.979Z,97337.52
2024-04-23T01:25:38.493Z,97337.19
2024-04-23T01:28:11.697Z,97339.91
2024-04-23T01:30:45.235Z,97340.91
2024-04-23T01:33:20.607Z,97346.55
2024-04-23T01:35:53.888Z,97345.89
2024-04-23T01:38:27.082Z,97345.05
2024-04-23T01:40:59.952Z,97343.01
2024-04-23T01:43:33.704Z,97350.64
2024-04-23T01:46:06.625Z,97351.33
2024-04-23T01:48:40.118Z,97350.59
2024-04-23T01:51:13.392Z,97346.23
2024-04-23T01:53:46.365Z,97344.89
2024-04-23T01:56:19.194Z,97343.20
2024-04-23T01:58:52.014Z,97339.77
2024-04-23T02:01:25.705Z,97338.55
2024-04-23T02:03:58.538Z,97336.81
2024-04-23T02:06:32.188Z,97342.53
2024-04-23T02:09:05.952Z,97339.85
2024-04-23T02:11:39.297Z,97336.92
2024-04-23T02:14:13.152Z,97337.94
2024-04-23T02:16:46.018Z,97334.18
2024-04-23T02:19:19.012Z,97338.25
2024-04-23T02:21:51.960Z,97338.88
2024-04-23T02:24:25.426Z,97339.34
2024-04-23T02:26:58.234Z,97344.14
2024-04-23T02:29:31.278Z,97345.70
2024-04-23T02:32:05.115Z,97351.38
2024-04-23T02:34:38.614Z,97353.42
2024-04-23T02:37:12.183Z,97352.94
2024-04-23T02:39:45.143Z,97354.10
2024-04-23T02:42:18.170Z,97353.36
2024-04-23T02:44:53.895Z,97353.56
2024-04-23T02:47:27.165Z,97352.55
2024-04-23T02:50:00.633Z,97349.38
2024-04-23T02:52:36.499Z,97350.13
2024-04-23T02:55:11.002Z,97347.65
2024-04-23T02:57:43.793Z,97351.07
2024-04-23T03:00:18.407Z,97350.02
2024-04-23T03:02:51.401Z,97350.96
2024-04-23T03:05:25.462Z,97352.62
2024-04-23T03:07:59.467Z,97352.56
2024-04-23T03:10:32.354Z,97356.95
2024-04-23T03:13:06.972Z,97350.78
2024-04-23T03:15:39.844Z,97349.77
2024-04-23T03:18:13.518Z,97343.40
2024-04-23T03:20:46.403Z,97348.87
2024-04-23T03:23:19.692Z,97350.02
2024-04-23T03:25:53.136Z,97345.16
2024-04-23T03:28:26.121Z,97344.71
2024-04-23T03:30:59.255Z,97350.29
2024-04-23T03:33:33.700Z,97344.04
2024-04-23T03:36:09.213Z,97350.10
2024-04-23T03:38:41.999Z,97353.70
2024-04-23T03:41:15.598Z,97351.81
2024-04-23T03:43:50.762Z,97345.18
2024-04-23T03:46:24.915Z,97342.08
2024-04-23T03:48:57.467Z,97340.52
2024-04-23T03:51:30.516Z,97343.06
2024-04-23T03:54:03.066Z,97339.35
2024-04-23T03:56:38.917Z,97340.45
2024-04-23T03:59:12.943Z,97333.46
2024-04-23T04:01:46.439Z,97328.11
2024-04-23T04:04:36.754Z,97331.45
2024-04-23T04:07:10.285Z,97328.23
2024-04-23T04:09:44.051Z,97327.48
2024-04-23T04:12:17.498Z,97326.23
2024-04-23T04:14:50.924Z,97328.52
2024-04-23T04:17:23.918Z,97325.20
2024-04-23T04:19:56.917Z,97322.54
2024-04-23T04:22:29.916Z,97324.55
2024-04-23T04:25:02.974Z,97319.52
2024-04-23T04:27:35.848Z,97316.55
2024-04-23T04:30:11.579Z,97314.30
2024-04-23T04:32:44.270Z,97306.36
2024-04-23T04:35:17.378Z,97304.34
2024-04-23T04:37:50.144Z,97305.67
2024-04-23T04:40:23.079Z,97308.13
2024-04-23T04:42:57.411Z,97300.66
2024-04-23T04:45:30.506Z,97295.73
2024-04-23T04:48:03.529Z,97291.08
2024-04-23T04:50:36.687Z,97294.53
2024-04-23T04:53:11.405Z,97291.92
2024-04-23T04:55:44.518Z,97293.24
2024-04-23T04:58:17.261Z,97289.76
2024-04-23T05:00:50.042Z,97287.13
2024-04-23T05:03:23.268Z,97289.88
2024-04-23T05:05:58.369Z,97288.09
2024-04-23T05:08:33.882Z,97286.71
2024-04-23T05:11:07.009Z,97286.45
2024-04-23T05:13:42.443Z,97285.20
2024-04-23T05:16:15.285Z,97282.74
2024-04-23T05:18:48.059Z,97283.41
2024-04-23T05:21:21.088Z,97285.12
2024-04-23T05:23:53.808Z,97281.15
2024-04-23T05:26:26.688Z,97283.30
2024-04-23T05:29:00.337Z,97284.89
2024-04-23T05:31:51.471Z,97285.96
2024-04-23T05:34:24.304Z,97284.15
2024-04-23T05:36:57.067Z,97278.54
2024-04-23T05:39:30.354Z,97271.73
2024-04-23T05:42:03.072Z,97274.58
2024-04-23T05:44:39.025Z,97272.48
2024-04-23T05:47:11.940Z,97265.56
2024-04-23T05:50:23.061Z,97260.04
2024-04-23T05:53:34.438Z,97252.57
2024-04-23T05:56:07.226Z,97244.43
2024-04-23T05:58:39.987Z,97237.73
2024-04-23T06:01:12.858Z,97237.66
2024-04-23T06:03:45.539Z,97236.55
2024-04-23T06:06:18.270Z,97236.31
2024-04-23T06:08:51.044Z,97230.84
2024-04-23T06:11:23.657Z,97228.63
2024-04-23T06:14:09.337Z,97223.30
2024-04-23T06:16:42.792Z,97222.08
2024-04-23T06:19:15.598Z,97221.91
2024-04-23T06:21:48.103Z,97217.84
2024-04-23T06:24:20.814Z,97215.68
2024-04-23T06:26:53.772Z,97216.46
2024-04-23T06:29:26.472Z,97214.20
2024-04-23T06:31:59.593Z,97206.63
2024-04-23T06:34:32.370Z,97199.96
2024-04-23T06:37:05.172Z,97199.59
2024-04-23T06:39:38.582Z,97195.05
2024-04-23T06:42:11.957Z,97194.83
2024-04-23T06:44:44.899Z,97191.49
2024-04-23T06:47:18.519Z,97195.40
2024-04-23T06:49:51.511Z,97193.35
2024-04-23T06:52:27.032Z,97189.21
2024-04-23T06:55:02.653Z,97184.33
2024-04-23T06:57:35.507Z,97180.92
2024-04-23T07:00:10.442Z,97176.08
2024-04-23T07:02:43.219Z,97171.34
2024-04-23T07:05:16.255Z,97172.11
2024-04-23T07:07:49.156Z,97167.29
2024-04-23T07:10:22.063Z,97167.22
2024-04-23T07:12:55.381Z,97162.27
2024-04-23T07:15:28.383Z,97157.69
2024-04-23T07:18:01.744Z,97156.98
2024-04-23T07:20:36.699Z,97151.44
2024-04-23T07:23:09.818Z,97152.42
2024-04-23T07:25:42.568Z,97146.11
2024-04-23T07:28:15.336Z,97140.48
2024-04-23T07:30:48.266Z,97133.96
2024-04-23T07:33:21.199Z,97131.82
2024-04-23T07:35:54.207Z,97121.14
2024-04-23T07:38:27.764Z,97115.63
2024-04-23T07:41:01.875Z,97117.99
2024-04-23T07:43:38.466Z,97123.02
2024-04-23T07:46:12.325Z,97114.12
2024-04-23T07:49:03.425Z,97113.30
2024-04-23T07:51:37.089Z,97105.69
2024-04-23T07:54:10.180Z,97108.29
2024-04-23T07:56:44.732Z,97103.13
2024-04-23T07:59:20.906Z,97098.95
2024-04-23T08:01:55.256Z,97093.17
2024-04-23T08:04:28.218Z,97087.55
2024-04-23T08:07:00.781Z,97087.84
2024-04-23T08:09:33.474Z,97087.27
2024-04-23T08:12:10.539Z,97082.89
2024-04-23T08:14:43.507Z,97082.34
2024-04-23T08:17:20.947Z,97078.13
2024-04-23T08:19:54.443Z,97073.15
2024-04-23T08:22:28.229Z,97070.35
2024-04-23T08:25:09.343Z,97060.89
2024-04-23T08:27:42.275Z,97052.78
2024-04-23T08:30:21.655Z,97047.41
2024-04-23T08:32:54.941Z,97044.19
2024-04-23T08:35:33.385Z,97036.91
2024-04-23T08:38:06.245Z,97026.49
2024-04-23T08:40:40.080Z,97030.68
2024-04-23T08:43:22.179Z,97025.27
2024-04-23T08:45:56.129Z,97022.98
2024-04-23T08:48:37.689Z,97019.17
2024-04-23T08:51:12.471Z,97016.94
2024-04-23T08:53:46.394Z,97008.53
2024-04-23T08:56:24.523Z,97006.98
2024-04-23T08:58:57.325Z,97000.96
2024-04-23T09:01:34.311Z,96990.44
2024-04-23T09:04:07.755Z,96991.90
2024-04-23T09:06:40.821Z,96986.08
2024-04-23T09:09:17.081Z,96980.44
2024-04-23T09:11:50.601Z,96978.02
2024-04-23T09:14:23.654Z,96965.03
2024-04-23T09:16:58.552Z,96963.25
2024-04-23T09:19:34.539Z,96958.57
2024-04-23T09:22:09.629Z,96953.44
2024-04-23T09:24:42.731Z,96948.13
2024-04-23T09:27:16.066Z,96950.14
2024-04-23T09:29:48.937Z,96944.77
2024-04-23T09:32:22.810Z,96944.23
2024-04-23T09:35:02.410Z,96941.31
2024-04-23T09:37:35.628Z,96938.45
2024-04-23T09:40:10.365Z,96937.51
2024-04-23T09:42:43.146Z,96937.76
2024-04-23T09:45:18.477Z,96936.23
2024-04-23T09:47:52.404Z,96933.19
2024-04-23T09:50:30.162Z,96933.51
2024-04-23T09:53:11.366Z,96935.50
2024-04-23T09:55:44.747Z,96931.48
2024-04-23T09:58:18.547Z,96927.16
2024-04-23T10:00:51.928Z,96927.88
2024-04-23T10:03:29.060Z,96922.20
2024-04-23T10:06:05.949Z,96916.84
2024-04-23T10:08:42.439Z,96907.73
2024-04-23T10:11:13.627Z,96905.98
2024-04-23T10:13:54.527Z,96908.39
2024-04-23T10:16:31.307Z,96904.88
2024-04-23T10:19:08.464Z,96902.40
2024-04-23T10:21:43.587Z,96892.20
2024-04-23T10:24:16.912Z,96886.23
2024-04-23T10:26:50.215Z,96882.36
2024-04-23T10:29:23.487Z,96877.16
2024-04-23T10:31:56.213Z,96873.80
2024-04-23T10:34:31.357Z,96868.96
2024-04-23T10:37:06.914Z,96868.00
2024-04-23T10:39:40.199Z,96863.04
2024-04-23T10:42:14.281Z,96858.98
2024-04-23T10:44:47.885Z,96861.15
2024-04-23T10:47:20.901Z,96856.82
2024-04-23T10:49:56.938Z,96850.71
2024-04-23T10:52:28.454Z,96846.83
2024-04-23T10:55:01.320Z,96843.37
2024-04-23T10:57:34.880Z,96842.41
2024-04-23T11:00:11.755Z,96844.05
2024-04-23T11:02:44.633Z,96838.84
2024-04-23T11:05:22.694Z,96833.95
2024-04-23T11:07:56.287Z,96837.20
2024-04-23T11:10:29.844Z,96835.61
2024-04-23T11:13:06.965Z,96830.85
2024-04-23T11:15:40.421Z,96833.48
2024-04-23T11:18:25.132Z,96832.98
2024-04-23T11:20:59.900Z,96827.85
2024-04-23T11:23:34.453Z,96822.91
2024-04-23T11:26:07.787Z,96817.15
2024-04-23T11:28:41.792Z,96817.66
2024-04-23T11:31:15.262Z,96814.95
2024-04-23T11:33:49.023Z,96812.94
2024-04-23T11:36:30.029Z,96812.64
2024-04-23T11:39:09.199Z,96810.20
2024-04-23T11:41:45.335Z,96806.59
2024-04-23T11:44:19.265Z,96804.73
2024-04-23T11:46:55.518Z,96805.70
2024-04-23T11:49:30.251Z,96803.69
2024-04-23T11:52:03.805Z,96807.11
2024-04-23T11:54:38.730Z,96805.52
2024-04-23T11:57:11.639Z,96804.61
2024-04-23T11:59:45.473Z,96796.42
2024-04-23T12:02:18.251Z,96787.94
2024-04-23T12:04:51.389Z,96789.25
2024-04-23T12:07:25.464Z,96785.55
2024-04-23T12:10:05.199Z,96783.55
2024-04-23T12:12:39.101Z,96790.34
2024-04-23T12:15:12.612Z,96792.20
2024-04-23T12:17:45.689Z,96792.70
2024-04-23T12:20:19.101Z,96789.08
2024-04-23T12:22:52.607Z,96785.35
2024-04-23T12:25:26.509Z,96791.98
2024-04-23T12:27:59.739Z,96788.65
2024-04-23T12:30:35.073Z,96783.89
2024-04-23T12:33:15.294Z,96785.54
2024-04-23T12:35:48.599Z,96784.50
2024-04-23T12:38:21.571Z,96785.31
2024-04-23T12:40:56.629Z,96776.33
2024-04-23T12:43:32.254Z,96777.89
2024-04-23T12:46:06.357Z,96777.84
2024-04-23T12:48:39.404Z,96780.18
2024-04-23T12:51:13.304Z,96782.01
2024-04-23T12:53:46.454Z,96782.96
2024-04-23T12:56:19.703Z,96780.89
2024-04-23T12:58:56.989Z,96779.45
2024-04-23T13:01:39.049Z,96778.53
2024-04-23T13:04:19.161Z,96777.86
2024-04-23T13:06:52.161Z,96778.33
2024-04-23T13:09:25.540Z,96777.36
2024-04-23T13:12:01.008Z,96774.92
2024-04-23T13:14:34.298Z,96772.38
2024-04-23T13:17:08.039Z,96772.82
2024-04-23T13:19:45.356Z,96776.88
2024-04-23T13:22:23.428Z,96776.91
2024-04-23T13:24:56.267Z,96775.39
2024-04-23T13:27:29.135Z,96774.14
2024-04-23T13:30:02.200Z,96775.27
2024-04-23T13:32:38.460Z,96776.15
2024-04-23T13:35:13.211Z,96779.55
2024-04-23T13:37:46.748Z,96781.48
2024-04-23T13:40:20.181Z,96779.61
2024-04-23T13:42:53.229Z,96783.14
2024-04-23T13:45:26.632Z,96781.54
2024-04-23T13:48:01.029Z,96785.38
2024-04-23T13:50:33.969Z,96791.39
2024-04-23T13:53:08.350Z,96788.90
2024-04-23T13:55:41.141Z,96788.76
2024-04-23T13:58:14.231Z,96791.31
2024-04-23T14:00:47.411Z,96793.76
2024-04-23T14:03:21.160Z,96794.79
2024-04-23T14:05:54.052Z,96797.67
2024-04-23T14:08:27.088Z,96797.55
2024-04-23T14:11:03.818Z,96802.48
2024-04-23T14:13:38.205Z,96801.39
2024-04-23T14:16:17.351Z,96804.27
2024-04-23T14:18:50.599Z,96800.58
2024-04-23T14:21:23.469Z,96803.75
2024-04-23T14:23:56.662Z,96803.93
2024-04-23T14:26:29.845Z,96809.98
2024-04-23T14:29:06.084Z,96810.94
2024-04-23T14:31:40.111Z,96811.87
2024-04-23T14:34:13.213Z,96807.14
2024-04-23T14:36:46.316Z,96810.49
2024-04-23T14:39:19.466Z,96818.95
2024-04-23T14:41:52.635Z,96817.20
2024-04-23T14:44:26.178Z,96820.31
2024-04-23T14:47:00.773Z,96818.41
2024-04-23T14:49:33.817Z,96819.12
2024-04-23T14:52:07.508Z,96823.54
2024-04-23T14:54:40.544Z,96828.00
2024-04-23T14:57:14.088Z,96830.29
2024-04-23T14:59:49.422Z,96831.94
2024-04-23T15:02:25.864Z,96833.95
2024-04-23T15:04:59.266Z,96835.19
2024-04-23T15:07:33.433Z,96845.05
2024-04-23T15:10:07.544Z,96851.09
2024-04-23T15:12:40.936Z,96847.95
2024-04-23T15:15:14.322Z,96855.73
2024-04-23T15:17:47.385Z,96855.71
2024-04-23T15:20:20.730Z,96867.61
2024-04-23T15:22:56.023Z,96869.85
2024-04-23T15:25:30.166Z,96871.75
2024-04-23T15:28:03.228Z,96870.40
2024-04-23T15:30:36.145Z,96868.70
2024-04-23T15:33:09.522Z,96872.67
2024-04-23T15:35:42.059Z,96876.27
2024-04-23T15:38:16.007Z,96875.61
2024-04-23T15:40:48.954Z,96877.46
2024-04-23T15:43:22.036Z,96879.00
2024-04-23T15:45:55.479Z,96879.11
2024-04-23T15:48:29.158Z,96879.65
2024-04-23T15:51:02.344Z,96883.87
2024-04-23T15:53:35.500Z,96891.81
2024-04-23T15:56:12.618Z,96904.00
2024-04-23T15:58:45.726Z,96911.44
2024-04-23T16:01:18.868Z,96917.64
2024-04-23T16:03:51.852Z,96918.16
2024-04-23T16:06:26.086Z,96925.03
2024-04-23T16:09:00.991Z,96928.70
2024-04-23T16:11:35.163Z,96930.41
2024-04-23T16:14:08.955Z,96933.52
2024-04-23T16:16:41.599Z,96940.23
2024-04-23T16:19:14.604Z,96937.87
2024-04-23T16:21:47.352Z,96938.81
2024-04-23T16:24:19.921Z,96947.90
2024-04-23T16:26:53.007Z,96952.79
2024-04-23T16:29:25.916Z,96954.36
2024-04-23T16:31:58.695Z,96962.03
2024-04-23T16:34:32.577Z,96963.19
2024-04-23T16:37:05.777Z,96966.38
2024-04-23T16:39:38.596Z,96972.78
2024-04-23T16:42:11.930Z,96982.45
2024-04-23T16:44:44.984Z,96987.52
2024-04-23T16:47:18.429Z,96999.05
2024-04-23T16:49:51.781Z,97012.69
2024-04-23T16:52:24.497Z,97018.70
2024-04-23T16:54:57.984Z,97035.83
2024-04-23T16:57:31.623Z,97046.86
2024-04-23T17:00:05.513Z,97059.05
2024-04-23T17:02:38.730Z,97065.34
2024-04-23T17:05:12.155Z,97071.55
2024-04-23T17:07:45.337Z,97075.59
2024-04-23T17:10:18.635Z,97080.23
2024-04-23T17:12:52.037Z,97080.25
2024-04-23T17:15:27.980Z,97082.47
2024-04-23T17:18:01.228Z,97088.62
2024-04-23T17:20:37.777Z,97090.67
2024-04-23T17:23:10.947Z,97097.31
2024-04-23T17:25:45.389Z,97102.08
2024-04-23T17:28:19.607Z,97108.69
2024-04-23T17:30:53.396Z,97116.50
2024-04-23T17:33:29.524Z,97119.23
2024-04-23T17:36:06.385Z,97122.19
2024-04-23T17:38:41.743Z,97131.16
2024-04-23T17:41:14.392Z,97135.80
2024-04-23T17:43:47.347Z,97140.09
2024-04-23T17:46:22.108Z,97145.13
2024-04-23T17:48:55.672Z,97154.73
2024-04-23T17:51:28.454Z,97160.51
2024-04-23T17:54:01.879Z,97162.64
2024-04-23T17:56:35.487Z,97164.20
2024-04-23T17:59:09.249Z,97166.30
2024-04-23T18:01:42.420Z,97167.52
2024-04-23T18:04:15.898Z,97165.05
2024-04-23T18:06:48.857Z,97176.55
2024-04-23T18:09:21.950Z,97182.35
2024-04-23T18:11:54.890Z,97183.05
2024-04-23T18:14:27.729Z,97182.02
2024-04-23T18:17:03.589Z,97177.59
2024-04-23T18:19:36.435Z,97182.91
2024-04-23T18:22:09.516Z,97186.95
2024-04-23T18:24:42.526Z,97185.38
2024-04-23T18:27:18.988Z,97190.81
2024-04-23T18:29:52.188Z,97192.35
2024-04-23T18:32:25.302Z,97197.88
2024-04-23T18:34:58.315Z,97197.95
2024-04-23T18:37:31.225Z,97197.09
2024-04-23T18:40:04.087Z,97199.32
2024-04-23T18:42:37.852Z,97201.51
2024-04-23T18:45:11.610Z,97206.39
2024-04-23T18:47:44.573Z,97212.73
2024-04-23T18:50:18.141Z,97213.59
2024-04-23T18:52:52.166Z,97216.09
2024-04-23T18:55:30.338Z,97217.59
2024-04-23T18:58:03.575Z,97220.95
2024-04-23T19:00:36.682Z,97221.95
2024-04-23T19:03:09.587Z,97225.05
2024-04-23T19:05:42.660Z,97228.55
2024-04-23T19:08:15.477Z,97230.33
2024-04-23T19:10:48.606Z,97228.72
2024-04-23T19:13:21.376Z,97228.06
2024-04-23T19:15:53.871Z,97224.16
2024-04-23T19:18:26.513Z,97231.30
2024-04-23T19:21:01.699Z,97229.23
2024-04-23T19:23:35.034Z,97232.77
2024-04-23T19:26:08.685Z,97234.79
2024-04-23T19:28:41.410Z,97236.12
2024-04-23T19:31:14.636Z,97239.63
2024-04-23T19:33:47.440Z,97241.70
2024-04-23T19:36:20.249Z,97242.63
2024-04-23T19:38:53.058Z,97241.77
2024-04-23T19:41:25.831Z,97238.11
2024-04-23T19:43:58.767Z,97235.94
2024-04-23T19:46:33.909Z,97239.70
2024-04-23T19:49:07.336Z,97247.63
2024-04-23T19:51:40.419Z,97251.74
2024-04-23T19:54:13.272Z,97248.71
2024-04-23T19:56:59.938Z,97249.70
2024-04-23T19:59:32.564Z,97247.64
2024-04-23T20:02:05.808Z,97254.00
2024-04-23T20:04:39.101Z,97261.13
2024-04-23T20:07:12.087Z,97262.40
2024-04-23T20:09:48.243Z,97262.70
2024-04-23T20:12:21.277Z,97265.86
2024-04-23T20:14:53.910Z,97269.35
2024-04-23T20:17:26.969Z,97273.10
2024-04-23T20:20:01.336Z,97272.31
2024-04-23T20:22:34.518Z,97270.66
2024-04-23T20:25:09.432Z,97274.89
2024-04-23T20:27:42.746Z,97273.21
2024-04-23T20:30:16.070Z,97272.02
2024-04-23T20:32:49.199Z,97276.94
2024-04-23T20:35:22.463Z,97278.35
2024-04-23T20:37:55.219Z,97277.16
2024-04-23T20:40:28.205Z,97279.49
2024-04-23T20:43:00.761Z,97283.59
2024-04-23T20:45:33.510Z,97282.32
2024-04-23T20:48:08.039Z,97283.61
2024-04-23T20:50:41.778Z,97285.66
2024-04-23T20:53:14.578Z,97285.36
2024-04-23T20:55:47.809Z,97279.58
2024-04-23T20:58:22.163Z,97281.42
2024-04-23T21:00:54.922Z,97281.37
2024-04-23T21:03:27.671Z,97280.80
2024-04-23T21:06:00.783Z,97283.48
2024-04-23T21:08:33.733Z,97288.36
2024-04-23T21:11:07.085Z,97286.90
2024-04-23T21:13:40.080Z,97298.73
2024-04-23T21:16:14.082Z,97301.29
2024-04-23T21:18:48.890Z,97303.57
2024-04-23T21:21:22.249Z,97303.50
2024-04-23T21:23:54.933Z,97303.67
2024-04-23T21:26:28.542Z,97303.33
2024-04-23T21:29:01.687Z,97300.66
2024-04-23T21:31:34.721Z,97292.81
2024-04-23T21:34:08.785Z,97292.95
2024-04-23T21:36:41.818Z,97298.41
2024-04-23T21:39:14.852Z,97295.23
2024-04-23T21:41:47.528Z,97296.73
2024-04-23T21:44:20.923Z,97297.63
2024-04-23T21:46:54.250Z,97293.54
2024-04-23T21:49:28.021Z,97292.48
2024-04-23T21:52:22.396Z,97293.80
2024-04-23T21:54:55.995Z,97296.39
2024-04-23T21:57:31.875Z,97296.00
2024-04-23T22:00:06.407Z,97289.37
2024-04-23T22:02:39.920Z,97284.80
2024-04-23T22:05:14.182Z,97286.77
2024-04-23T22:07:47.590Z,97283.67
2024-04-23T22:10:23.210Z,97283.05
2024-04-23T22:12:57.916Z,97285.95
2024-04-23T22:15:38.070Z,97288.87
2024-04-23T22:18:15.655Z,97289.41
2024-04-23T22:20:48.657Z,97290.83
2024-04-23T22:23:21.966Z,97285.66
2024-04-23T22:25:55.316Z,97285.67
2024-04-23T22:28:28.888Z,97284.59
2024-04-23T22:31:04.991Z,97282.44
2024-04-23T22:33:38.002Z,97281.67
2024-04-23T22:36:11.710Z,97279.98
2024-04-23T22:38:45.159Z,97283.15
2024-04-23T22:41:18.308Z,97287.08
2024-04-23T22:43:51.296Z,97288.67
2024-04-23T22:46:24.236Z,97293.00
2024-04-23T22:48:58.023Z,97293.71
2024-04-23T22:51:31.124Z,97291.66
2024-04-23T22:54:04.532Z,97292.73
2024-04-23T22:56:37.500Z,97289.97
2024-04-23T22:59:10.702Z,97281.64
2024-04-23T23:01:44.615Z,97278.11
2024-04-23T23:04:17.784Z,97274.70
2024-04-23T23:06:50.851Z,97272.39
2024-04-23T23:09:23.813Z,97272.65
2024-04-23T23:11:57.220Z,97274.81
2024-04-23T23:14:30.216Z,97274.64
2024-04-23T23:17:03.443Z,97274.98
2024-04-23T23:19:36.239Z,97274.47
2024-04-23T23:22:09.063Z,97277.06
2024-04-23T23:24:42.493Z,97278.06
2024-04-23T23:27:15.923Z,97280.82
2024-04-23T23:29:48.561Z,97286.04
2024-04-23T23:32:21.619Z,97291.61
2024-04-23T23:34:54.740Z,97289.23
2024-04-23T23:37:27.525Z,97290.45
2024-04-23T23:40:00.574Z,97292.63
2024-04-23T23:42:33.562Z,97293.17
2024-04-23T23:45:07.810Z,97291.75
2024-04-23T23:47:41.165Z,97292.70
2024-04-23T23:50:14.380Z,97296.72
2024-04-23T23:52:47.369Z,97300.10
2024-04-23T23:55:20.370Z,97299.95
2024-04-23T23:57:54.602Z,97301.52
